sensor_id;sensor_type;location;lat;lon;timestamp;temperature;humidity
43151;DHT22;28755;51.478;5.702;2023-04-22T00:00:47;8.80;99.90
43151;DHT22;28755;51.478;5.702;2023-04-22T00:03:13;8.80;99.90
43151;DHT22;28755;51.478;5.702;2023-04-22T00:05:39;8.80;99.90
43151;DHT22;28755;51.478;5.702;2023-04-22T00:08:06;8.80;99.90
43151;DHT22;28755;51.478;5.702;2023-04-22T00:10:32;8.70;99.90
43151;DHT22;28755;51.478;5.702;2023-04-22T00:12:57;8.70;99.90
43151;DHT22;28755;51.478;5.702;2023-04-22T00:15:23;8.70;99.90
43151;DHT22;28755;51.478;5.702;2023-04-22T00:17:49;8.60;99.90
43151;DHT22;28755;51.478;5.702;2023-04-22T00:20:16;8.70;99.90
43151;DHT22;28755;51.478;5.702;2023-04-22T00:22:41;8.60;99.90
43151;DHT22;28755;51.478;5.702;2023-04-22T00:25:07;8.60;99.90
43151;DHT22;28755;51.478;5.702;2023-04-22T00:27:33;8.60;99.90
43151;DHT22;28755;51.478;5.702;2023-04-22T00:29:58;8.60;99.90
43151;DHT22;28755;51.478;5.702;2023-04-22T00:32:24;8.60;99.90
43151;DHT22;28755;51.478;5.702;2023-04-22T00:34:51;8.60;99.90
43151;DHT22;28755;51.478;5.702;2023-04-22T00:37:16;8.60;99.90
43151;DHT22;28755;51.478;5.702;2023-04-22T00:39:42;8.60;99.90
43151;DHT22;28755;51.478;5.702;2023-04-22T00:42:08;8.60;99.90
43151;DHT22;28755;51.478;5.702;2023-04-22T00:44:34;8.60;99.90
43151;DHT22;28755;51.478;5.702;2023-04-22T00:47:00;8.60;99.90
43151;DHT22;28755;51.478;5.702;2023-04-22T00:49:26;8.70;99.90
43151;DHT22;28755;51.478;5.702;2023-04-22T00:51:52;8.60;99.90
43151;DHT22;28755;51.478;5.702;2023-04-22T00:54:18;8.70;99.90
43151;DHT22;28755;51.478;5.702;2023-04-22T00:56:44;8.70;99.90
43151;DHT22;28755;51.478;5.702;2023-04-22T00:59:10;8.70;99.90
43151;DHT22;28755;51.478;5.702;2023-04-22T01:01:36;8.80;99.90
43151;DHT22;28755;51.478;5.702;2023-04-22T01:04:03;8.80;99.90
43151;DHT22;28755;51.478;5.702;2023-04-22T01:06:29;8.80;99.90
43151;DHT22;28755;51.478;5.702;2023-04-22T01:08:57;8.80;99.90
43151;DHT22;28755;51.478;5.702;2023-04-22T01:11:23;8.90;99.90
43151;DHT22;28755;51.478;5.702;2023-04-22T01:13:49;8.90;99.90
43151;DHT22;28755;51.478;5.702;2023-04-22T01:16:15;8.90;99.90
43151;DHT22;28755;51.478;5.702;2023-04-22T01:18:41;8.90;99.90
43151;DHT22;28755;51.478;5.702;2023-04-22T01:21:07;8.90;99.90
43151;DHT22;28755;51.478;5.702;2023-04-22T01:23:33;9.00;99.90
43151;DHT22;28755;51.478;5.702;2023-04-22T01:25:58;9.00;99.90
43151;DHT22;28755;51.478;5.702;2023-04-22T01:28:24;9.00;99.90
43151;DHT22;28755;51.478;5.702;2023-04-22T01:30:50;9.00;99.90
43151;DHT22;28755;51.478;5.702;2023-04-22T01:33:17;9.00;99.90
43151;DHT22;28755;51.478;5.702;2023-04-22T01:35:42;9.10;99.90
43151;DHT22;28755;51.478;5.702;2023-04-22T01:38:10;9.10;99.90
43151;DHT22;28755;51.478;5.702;2023-04-22T01:40:37;9.10;99.90
43151;DHT22;28755;51.478;5.702;2023-04-22T01:43:03;9.10;99.90
43151;DHT22;28755;51.478;5.702;2023-04-22T01:45:28;9.10;99.90
43151;DHT22;28755;51.478;5.702;2023-04-22T01:47:54;9.10;99.90
43151;DHT22;28755;51.478;5.702;2023-04-22T01:50:21;9.10;99.90
43151;DHT22;28755;51.478;5.702;2023-04-22T01:52:47;9.10;99.90
43151;DHT22;28755;51.478;5.702;2023-04-22T01:55:12;9.10;99.90
43151;DHT22;28755;51.478;5.702;2023-04-22T01:57:38;9.10;99.90
43151;DHT22;28755;51.478;5.702;2023-04-22T02:00:04;9.10;99.90
43151;DHT22;28755;51.478;5.702;2023-04-22T02:02:30;9.10;99.90
43151;DHT22;28755;51.478;5.702;2023-04-22T02:04:56;9.20;99.90
43151;DHT22;28755;51.478;5.702;2023-04-22T02:07:22;9.20;99.90
43151;DHT22;28755;51.478;5.702;2023-04-22T02:09:48;9.20;99.90
43151;DHT22;28755;51.478;5.702;2023-04-22T02:12:13;9.20;99.90
43151;DHT22;28755;51.478;5.702;2023-04-22T02:14:39;9.20;99.90
43151;DHT22;28755;51.478;5.702;2023-04-22T02:17:04;9.20;99.90
43151;DHT22;28755;51.478;5.702;2023-04-22T02:19:30;9.10;99.90
43151;DHT22;28755;51.478;5.702;2023-04-22T02:21:56;9.10;99.90
43151;DHT22;28755;51.478;5.702;2023-04-22T02:24:22;9.10;99.90
43151;DHT22;28755;51.478;5.702;2023-04-22T02:26:47;9.10;99.90
43151;DHT22;28755;51.478;5.702;2023-04-22T02:29:13;9.10;99.90
43151;DHT22;28755;51.478;5.702;2023-04-22T02:31:40;9.10;99.90
43151;DHT22;28755;51.478;5.702;2023-04-22T02:34:06;9.10;99.90
43151;DHT22;28755;51.478;5.702;2023-04-22T02:36:31;9.10;99.90
43151;DHT22;28755;51.478;5.702;2023-04-22T02:38:59;9.10;99.90
43151;DHT22;28755;51.478;5.702;2023-04-22T02:41:25;9.20;99.90
43151;DHT22;28755;51.478;5.702;2023-04-22T02:43:50;9.30;99.90
43151;DHT22;28755;51.478;5.702;2023-04-22T02:46:16;9.20;99.90
43151;DHT22;28755;51.478;5.702;2023-04-22T02:48:42;9.20;99.90
43151;DHT22;28755;51.478;5.702;2023-04-22T02:51:08;9.20;99.90
43151;DHT22;28755;51.478;5.702;2023-04-22T02:53:33;9.20;99.90
43151;DHT22;28755;51.478;5.702;2023-04-22T02:55:59;9.20;99.90
43151;DHT22;28755;51.478;5.702;2023-04-22T02:58:24;9.20;99.90
43151;DHT22;28755;51.478;5.702;2023-04-22T03:00:51;9.20;99.90
43151;DHT22;28755;51.478;5.702;2023-04-22T03:03:17;9.20;99.90
43151;DHT22;28755;51.478;5.702;2023-04-22T03:05:42;9.30;99.90
43151;DHT22;28755;51.478;5.702;2023-04-22T03:08:08;9.30;99.90
43151;DHT22;28755;51.478;5.702;2023-04-22T03:10:33;9.30;99.90
43151;DHT22;28755;51.478;5.702;2023-04-22T03:12:59;9.40;99.90
43151;DHT22;28755;51.478;5.702;2023-04-22T03:15:25;9.40;99.90
43151;DHT22;28755;51.478;5.702;2023-04-22T03:17:51;9.40;99.90
43151;DHT22;28755;51.478;5.702;2023-04-22T03:20:16;9.40;99.90
43151;DHT22;28755;51.478;5.702;2023-04-22T03:22:42;9.40;99.90
43151;DHT22;28755;51.478;5.702;2023-04-22T03:25:09;9.40;99.90
43151;DHT22;28755;51.478;5.702;2023-04-22T03:27:35;9.40;99.90
43151;DHT22;28755;51.478;5.702;2023-04-22T03:30:01;9.40;99.90
43151;DHT22;28755;51.478;5.702;2023-04-22T03:32:26;9.40;99.90
43151;DHT22;28755;51.478;5.702;2023-04-22T03:34:52;9.40;99.90
43151;DHT22;28755;51.478;5.702;2023-04-22T03:37:17;9.40;99.90
43151;DHT22;28755;51.478;5.702;2023-04-22T03:39:43;9.40;99.90
43151;DHT22;28755;51.478;5.702;2023-04-22T03:42:10;9.40;99.90
43151;DHT22;28755;51.478;5.702;2023-04-22T03:44:35;9.40;99.90
43151;DHT22;28755;51.478;5.702;2023-04-22T03:47:01;9.40;99.90
43151;DHT22;28755;51.478;5.702;2023-04-22T03:49:26;9.30;99.90
43151;DHT22;28755;51.478;5.702;2023-04-22T03:51:52;9.40;99.90
43151;DHT22;28755;51.478;5.702;2023-04-22T03:54:18;9.30;99.90
43151;DHT22;28755;51.478;5.702;2023-04-22T03:56:43;9.40;99.90
43151;DHT22;28755;51.478;5.702;2023-04-22T03:59:09;9.30;99.90
43151;DHT22;28755;51.478;5.702;2023-04-22T04:01:34;9.40;99.90
43151;DHT22;28755;51.478;5.702;2023-04-22T04:04:00;9.40;99.90
43151;DHT22;28755;51.478;5.702;2023-04-22T04:06:26;9.40;99.90
43151;DHT22;28755;51.478;5.702;2023-04-22T04:08:52;9.40;99.90
43151;DHT22;28755;51.478;5.702;2023-04-22T04:11:18;9.50;99.90
43151;DHT22;28755;51.478;5.702;2023-04-22T04:13:43;9.40;99.90
43151;DHT22;28755;51.478;5.702;2023-04-22T04:16:09;9.40;99.90
43151;DHT22;28755;51.478;5.702;2023-04-22T04:18:35;9.40;99.90
43151;DHT22;28755;51.478;5.702;2023-04-22T04:21:01;9.40;99.90
43151;DHT22;28755;51.478;5.702;2023-04-22T04:23:28;9.40;99.90
43151;DHT22;28755;51.478;5.702;2023-04-22T04:25:54;9.40;99.90
43151;DHT22;28755;51.478;5.702;2023-04-22T04:28:20;9.40;99.90
43151;DHT22;28755;51.478;5.702;2023-04-22T04:30:46;9.40;99.90
43151;DHT22;28755;51.478;5.702;2023-04-22T04:33:12;9.40;99.90
43151;DHT22;28755;51.478;5.702;2023-04-22T04:35:41;9.40;99.90
43151;DHT22;28755;51.478;5.702;2023-04-22T04:38:07;9.40;99.90
43151;DHT22;28755;51.478;5.702;2023-04-22T04:40:34;9.40;99.90
43151;DHT22;28755;51.478;5.702;2023-04-22T04:43:00;9.40;99.90
43151;DHT22;28755;51.478;5.702;2023-04-22T04:45:28;9.40;99.90
43151;DHT22;28755;51.478;5.702;2023-04-22T04:47:54;9.40;99.90
43151;DHT22;28755;51.478;5.702;2023-04-22T04:50:20;9.40;99.90
43151;DHT22;28755;51.478;5.702;2023-04-22T04:52:48;9.50;99.90
43151;DHT22;28755;51.478;5.702;2023-04-22T04:55:14;9.40;99.90
43151;DHT22;28755;51.478;5.702;2023-04-22T04:57:40;9.40;99.90
43151;DHT22;28755;51.478;5.702;2023-04-22T05:00:06;9.40;99.90
43151;DHT22;28755;51.478;5.702;2023-04-22T05:02:32;9.50;99.90
43151;DHT22;28755;51.478;5.702;2023-04-22T05:04:58;9.50;99.90
43151;DHT22;28755;51.478;5.702;2023-04-22T05:07:23;9.50;99.90
43151;DHT22;28755;51.478;5.702;2023-04-22T05:09:49;9.60;99.90
43151;DHT22;28755;51.478;5.702;2023-04-22T05:12:14;9.50;99.90
43151;DHT22;28755;51.478;5.702;2023-04-22T05:14:40;9.60;99.90
43151;DHT22;28755;51.478;5.702;2023-04-22T05:17:06;9.60;99.90
43151;DHT22;28755;51.478;5.702;2023-04-22T05:19:31;9.70;99.90
43151;DHT22;28755;51.478;5.702;2023-04-22T05:21:57;9.80;99.90
43151;DHT22;28755;51.478;5.702;2023-04-22T05:24:23;9.90;99.90
43151;DHT22;28755;51.478;5.702;2023-04-22T05:26:49;9.80;99.90
43151;DHT22;28755;51.478;5.702;2023-04-22T05:29:14;9.80;99.90
43151;DHT22;28755;51.478;5.702;2023-04-22T05:31:40;9.80;99.90
43151;DHT22;28755;51.478;5.702;2023-04-22T05:34:05;9.80;99.90
43151;DHT22;28755;51.478;5.702;2023-04-22T05:36:31;9.80;99.90
43151;DHT22;28755;51.478;5.702;2023-04-22T05:38:56;9.90;99.90
43151;DHT22;28755;51.478;5.702;2023-04-22T05:41:22;10.00;99.90
43151;DHT22;28755;51.478;5.702;2023-04-22T05:43:48;10.10;99.90
43151;DHT22;28755;51.478;5.702;2023-04-22T05:46:13;10.20;99.90
43151;DHT22;28755;51.478;5.702;2023-04-22T05:48:39;10.20;99.90
43151;DHT22;28755;51.478;5.702;2023-04-22T05:51:04;10.40;99.90
43151;DHT22;28755;51.478;5.702;2023-04-22T05:53:30;10.50;99.90
43151;DHT22;28755;51.478;5.702;2023-04-22T05:55:56;10.60;99.90
43151;DHT22;28755;51.478;5.702;2023-04-22T05:58:21;10.60;99.90
43151;DHT22;28755;51.478;5.702;2023-04-22T06:00:47;10.70;99.90
43151;DHT22;28755;51.478;5.702;2023-04-22T06:03:12;10.80;99.90
43151;DHT22;28755;51.478;5.702;2023-04-22T06:05:38;11.10;99.90
43151;DHT22;28755;51.478;5.702;2023-04-22T06:08:03;11.20;99.90
43151;DHT22;28755;51.478;5.702;2023-04-22T06:10:29;11.50;99.90
43151;DHT22;28755;51.478;5.702;2023-04-22T06:12:54;11.60;99.90
43151;DHT22;28755;51.478;5.702;2023-04-22T06:15:20;11.70;99.90
43151;DHT22;28755;51.478;5.702;2023-04-22T06:17:47;11.60;99.90
43151;DHT22;28755;51.478;5.702;2023-04-22T06:20:13;11.60;99.90
43151;DHT22;28755;51.478;5.702;2023-04-22T06:22:38;11.70;99.90
43151;DHT22;28755;51.478;5.702;2023-04-22T06:25:04;11.80;99.90
43151;DHT22;28755;51.478;5.702;2023-04-22T06:27:30;11.90;99.90
43151;DHT22;28755;51.478;5.702;2023-04-22T06:29:55;12.00;99.90
43151;DHT22;28755;51.478;5.702;2023-04-22T06:32:21;12.10;99.90
43151;DHT22;28755;51.478;5.702;2023-04-22T06:34:46;12.30;99.90
43151;DHT22;28755;51.478;5.702;2023-04-22T06:37:12;12.40;99.90
43151;DHT22;28755;51.478;5.702;2023-04-22T06:39:38;12.50;99.90
43151;DHT22;28755;51.478;5.702;2023-04-22T06:42:03;12.60;99.90
43151;DHT22;28755;51.478;5.702;2023-04-22T06:44:29;12.70;99.90
43151;DHT22;28755;51.478;5.702;2023-04-22T06:46:55;12.80;99.90
43151;DHT22;28755;51.478;5.702;2023-04-22T06:49:21;13.00;99.90
43151;DHT22;28755;51.478;5.702;2023-04-22T06:51:46;13.10;99.90
43151;DHT22;28755;51.478;5.702;2023-04-22T06:54:12;13.20;99.90
43151;DHT22;28755;51.478;5.702;2023-04-22T06:56:37;13.30;99.90
43151;DHT22;28755;51.478;5.702;2023-04-22T06:59:03;13.60;99.90
43151;DHT22;28755;51.478;5.702;2023-04-22T07:01:29;13.90;99.90
43151;DHT22;28755;51.478;5.702;2023-04-22T07:03:54;13.80;99.90
43151;DHT22;28755;51.478;5.702;2023-04-22T07:06:20;13.90;99.90
43151;DHT22;28755;51.478;5.702;2023-04-22T07:08:45;14.00;99.90
43151;DHT22;28755;51.478;5.702;2023-04-22T07:11:11;14.00;99.90
43151;DHT22;28755;51.478;5.702;2023-04-22T07:13:37;14.10;99.90
43151;DHT22;28755;51.478;5.702;2023-04-22T07:16:02;14.00;99.90
43151;DHT22;28755;51.478;5.702;2023-04-22T07:18:28;14.00;99.90
43151;DHT22;28755;51.478;5.702;2023-04-22T07:20:53;14.10;99.90
43151;DHT22;28755;51.478;5.702;2023-04-22T07:23:20;14.30;99.90
43151;DHT22;28755;51.478;5.702;2023-04-22T07:25:46;14.50;99.90
43151;DHT22;28755;51.478;5.702;2023-04-22T07:28:11;14.70;99.90
43151;DHT22;28755;51.478;5.702;2023-04-22T07:30:37;15.40;99.90
43151;DHT22;28755;51.478;5.702;2023-04-22T07:33:03;15.70;99.90
43151;DHT22;28755;51.478;5.702;2023-04-22T07:35:28;15.90;99.90
43151;DHT22;28755;51.478;5.702;2023-04-22T07:37:55;16.00;99.90
43151;DHT22;28755;51.478;5.702;2023-04-22T07:40:20;15.70;99.90
43151;DHT22;28755;51.478;5.702;2023-04-22T07:42:46;15.80;99.90
43151;DHT22;28755;51.478;5.702;2023-04-22T07:45:11;16.00;99.90
43151;DHT22;28755;51.478;5.702;2023-04-22T07:47:38;16.00;99.90
43151;DHT22;28755;51.478;5.702;2023-04-22T07:50:04;16.00;99.90
43151;DHT22;28755;51.478;5.702;2023-04-22T07:52:30;16.20;99.90
43151;DHT22;28755;51.478;5.702;2023-04-22T07:54:55;16.70;99.90
43151;DHT22;28755;51.478;5.702;2023-04-22T07:57:21;17.00;99.90
43151;DHT22;28755;51.478;5.702;2023-04-22T07:59:47;17.00;99.90
43151;DHT22;28755;51.478;5.702;2023-04-22T08:02:13;16.90;99.90
43151;DHT22;28755;51.478;5.702;2023-04-22T08:04:39;16.70;99.90
43151;DHT22;28755;51.478;5.702;2023-04-22T08:07:04;16.70;99.90
43151;DHT22;28755;51.478;5.702;2023-04-22T08:09:30;17.10;99.90
43151;DHT22;28755;51.478;5.702;2023-04-22T08:11:55;17.10;99.90
43151;DHT22;28755;51.478;5.702;2023-04-22T08:14:22;17.30;99.90
43151;DHT22;28755;51.478;5.702;2023-04-22T08:16:49;17.50;99.90
43151;DHT22;28755;51.478;5.702;2023-04-22T08:19:15;18.10;99.90
43151;DHT22;28755;51.478;5.702;2023-04-22T08:21:41;18.40;99.90
43151;DHT22;28755;51.478;5.702;2023-04-22T08:24:06;19.00;99.90
43151;DHT22;28755;51.478;5.702;2023-04-22T08:26:32;19.20;99.90
43151;DHT22;28755;51.478;5.702;2023-04-22T08:28:57;19.00;99.90
43151;DHT22;28755;51.478;5.702;2023-04-22T08:31:23;19.20;99.90
43151;DHT22;28755;51.478;5.702;2023-04-22T08:33:48;19.80;99.90
43151;DHT22;28755;51.478;5.702;2023-04-22T08:36:15;20.20;99.90
43151;DHT22;28755;51.478;5.702;2023-04-22T08:38:41;19.90;99.90
43151;DHT22;28755;51.478;5.702;2023-04-22T08:41:07;20.30;99.90
43151;DHT22;28755;51.478;5.702;2023-04-22T08:43:34;20.00;99.90
43151;DHT22;28755;51.478;5.702;2023-04-22T08:46:00;19.80;99.90
43151;DHT22;28755;51.478;5.702;2023-04-22T08:48:26;19.40;99.90
43151;DHT22;28755;51.478;5.702;2023-04-22T08:50:52;20.00;99.90
43151;DHT22;28755;51.478;5.702;2023-04-22T08:53:19;21.10;99.90
43151;DHT22;28755;51.478;5.702;2023-04-22T08:55:45;21.80;99.90
43151;DHT22;28755;51.478;5.702;2023-04-22T08:58:12;21.70;99.90
43151;DHT22;28755;51.478;5.702;2023-04-22T09:00:41;22.10;99.90
43151;DHT22;28755;51.478;5.702;2023-04-22T09:03:07;22.80;99.90
43151;DHT22;28755;51.478;5.702;2023-04-22T09:05:35;23.20;99.90
43151;DHT22;28755;51.478;5.702;2023-04-22T09:08:02;24.00;99.90
43151;DHT22;28755;51.478;5.702;2023-04-22T09:10:29;24.00;99.90
43151;DHT22;28755;51.478;5.702;2023-04-22T09:12:56;23.80;99.90
43151;DHT22;28755;51.478;5.702;2023-04-22T09:15:23;24.20;99.90
43151;DHT22;28755;51.478;5.702;2023-04-22T09:17:50;23.80;99.90
43151;DHT22;28755;51.478;5.702;2023-04-22T09:20:17;22.90;99.90
43151;DHT22;28755;51.478;5.702;2023-04-22T09:22:48;22.40;99.90
43151;DHT22;28755;51.478;5.702;2023-04-22T09:25:18;21.20;99.90
43151;DHT22;28755;51.478;5.702;2023-04-22T09:27:54;20.50;99.90
43151;DHT22;28755;51.478;5.702;2023-04-22T09:30:34;20.70;99.90
43151;DHT22;28755;51.478;5.702;2023-04-22T09:33:02;22.00;99.90
43151;DHT22;28755;51.478;5.702;2023-04-22T09:35:30;22.50;99.90
43151;DHT22;28755;51.478;5.702;2023-04-22T09:37:57;22.80;99.90
43151;DHT22;28755;51.478;5.702;2023-04-22T09:40:23;23.70;99.90
43151;DHT22;28755;51.478;5.702;2023-04-22T09:42:54;24.60;99.90
43151;DHT22;28755;51.478;5.702;2023-04-22T09:45:30;25.40;99.90
43151;DHT22;28755;51.478;5.702;2023-04-22T09:47:59;24.80;99.90
43151;DHT22;28755;51.478;5.702;2023-04-22T09:50:26;25.00;99.90
43151;DHT22;28755;51.478;5.702;2023-04-22T09:53:03;25.20;99.90
43151;DHT22;28755;51.478;5.702;2023-04-22T09:55:33;25.60;99.50
43151;DHT22;28755;51.478;5.702;2023-04-22T09:58:04;25.20;99.30
43151;DHT22;28755;51.478;5.702;2023-04-22T10:00:31;24.50;99.90
43151;DHT22;28755;51.478;5.702;2023-04-22T10:02:56;24.20;99.90
43151;DHT22;28755;51.478;5.702;2023-04-22T10:05:22;23.20;99.90
43151;DHT22;28755;51.478;5.702;2023-04-22T10:07:47;23.60;99.90
43151;DHT22;28755;51.478;5.702;2023-04-22T10:10:13;23.80;99.90
43151;DHT22;28755;51.478;5.702;2023-04-22T10:12:39;23.80;99.90
43151;DHT22;28755;51.478;5.702;2023-04-22T10:15:06;24.70;99.90
43151;DHT22;28755;51.478;5.702;2023-04-22T10:17:35;25.00;99.80
43151;DHT22;28755;51.478;5.702;2023-04-22T10:20:03;26.20;99.70
43151;DHT22;28755;51.478;5.702;2023-04-22T10:22:32;26.70;98.40
43151;DHT22;28755;51.478;5.702;2023-04-22T10:24:58;26.80;97.80
43151;DHT22;28755;51.478;5.702;2023-04-22T10:27:24;25.30;98.30
43151;DHT22;28755;51.478;5.702;2023-04-22T10:29:49;25.00;99.90
43151;DHT22;28755;51.478;5.702;2023-04-22T10:34:48;24.50;99.70
43151;DHT22;28755;51.478;5.702;2023-04-22T10:37:17;23.00;99.90
43151;DHT22;28755;51.478;5.702;2023-04-22T10:40:16;22.00;99.90
43151;DHT22;28755;51.478;5.702;2023-04-22T10:42:49;21.30;99.90
43151;DHT22;28755;51.478;5.702;2023-04-22T10:45:15;20.90;99.90
43151;DHT22;28755;51.478;5.702;2023-04-22T10:47:42;20.70;99.90
43151;DHT22;28755;51.478;5.702;2023-04-22T10:52:36;21.70;99.90
43151;DHT22;28755;51.478;5.702;2023-04-22T10:55:02;23.40;99.90
43151;DHT22;28755;51.478;5.702;2023-04-22T10:57:31;24.30;99.90
43151;DHT22;28755;51.478;5.702;2023-04-22T11:02:40;23.80;99.90
43151;DHT22;28755;51.478;5.702;2023-04-22T11:05:25;22.60;99.90
43151;DHT22;28755;51.478;5.702;2023-04-22T11:07:57;21.50;99.90
43151;DHT22;28755;51.478;5.702;2023-04-22T11:10:40;20.90;99.90
43151;DHT22;28755;51.478;5.702;2023-04-22T11:13:17;20.30;99.90
43151;DHT22;28755;51.478;5.702;2023-04-22T11:15:48;20.00;99.90
43151;DHT22;28755;51.478;5.702;2023-04-22T11:18:24;19.60;99.90
43151;DHT22;28755;51.478;5.702;2023-04-22T11:20:50;19.30;99.90
43151;DHT22;28755;51.478;5.702;2023-04-22T11:23:25;19.10;99.90
43151;DHT22;28755;51.478;5.702;2023-04-22T11:25:55;19.00;99.90
43151;DHT22;28755;51.478;5.702;2023-04-22T11:28:21;19.00;99.90
43151;DHT22;28755;51.478;5.702;2023-04-22T11:30:47;19.20;99.90
43151;DHT22;28755;51.478;5.702;2023-04-22T11:33:14;19.20;99.90
43151;DHT22;28755;51.478;5.702;2023-04-22T11:35:41;19.30;99.90
43151;DHT22;28755;51.478;5.702;2023-04-22T11:38:07;19.40;99.90
43151;DHT22;28755;51.478;5.702;2023-04-22T11:40:38;19.20;99.90
43151;DHT22;28755;51.478;5.702;2023-04-22T11:43:05;19.20;99.90
43151;DHT22;28755;51.478;5.702;2023-04-22T11:45:33;19.10;99.90
43151;DHT22;28755;51.478;5.702;2023-04-22T11:48:00;19.10;99.90
43151;DHT22;28755;51.478;5.702;2023-04-22T11:50:28;19.00;99.90
43151;DHT22;28755;51.478;5.702;2023-04-22T11:52:59;19.00;99.90
43151;DHT22;28755;51.478;5.702;2023-04-22T11:55:37;19.00;99.90
43151;DHT22;28755;51.478;5.702;2023-04-22T11:58:07;19.00;99.90
43151;DHT22;28755;51.478;5.702;2023-04-22T12:00:44;19.00;99.90
43151;DHT22;28755;51.478;5.702;2023-04-22T12:03:16;19.00;99.90
43151;DHT22;28755;51.478;5.702;2023-04-22T12:08:18;19.10;99.90
43151;DHT22;28755;51.478;5.702;2023-04-22T12:10:53;19.20;99.90
43151;DHT22;28755;51.478;5.702;2023-04-22T12:16:08;19.30;99.90
43151;DHT22;28755;51.478;5.702;2023-04-22T12:18:36;19.30;99.90
43151;DHT22;28755;51.478;5.702;2023-04-22T12:21:11;19.10;99.90
43151;DHT22;28755;51.478;5.702;2023-04-22T12:23:50;18.80;99.90
43151;DHT22;28755;51.478;5.702;2023-04-22T12:26:18;18.60;99.90
43151;DHT22;28755;51.478;5.702;2023-04-22T12:28:44;18.60;99.90
43151;DHT22;28755;51.478;5.702;2023-04-22T12:31:12;18.50;99.90
43151;DHT22;28755;51.478;5.702;2023-04-22T12:33:38;18.40;99.90
43151;DHT22;28755;51.478;5.702;2023-04-22T12:36:04;18.50;99.90
43151;DHT22;28755;51.478;5.702;2023-04-22T12:38:30;18.40;99.90
43151;DHT22;28755;51.478;5.702;2023-04-22T12:40:56;18.30;99.90
43151;DHT22;28755;51.478;5.702;2023-04-22T12:43:21;18.40;99.90
43151;DHT22;28755;51.478;5.702;2023-04-22T12:45:47;18.60;99.90
43151;DHT22;28755;51.478;5.702;2023-04-22T12:48:12;18.40;99.90
43151;DHT22;28755;51.478;5.702;2023-04-22T12:50:39;18.20;99.90
43151;DHT22;28755;51.478;5.702;2023-04-22T12:53:05;18.10;99.90
43151;DHT22;28755;51.478;5.702;2023-04-22T12:55:30;17.80;99.90
43151;DHT22;28755;51.478;5.702;2023-04-22T12:57:56;17.80;99.90
43151;DHT22;28755;51.478;5.702;2023-04-22T13:00:22;17.60;99.90
43151;DHT22;28755;51.478;5.702;2023-04-22T13:02:49;17.50;99.90
43151;DHT22;28755;51.478;5.702;2023-04-22T13:05:15;17.50;99.90
43151;DHT22;28755;51.478;5.702;2023-04-22T13:07:41;17.50;99.90
43151;DHT22;28755;51.478;5.702;2023-04-22T13:10:10;17.20;99.90
43151;DHT22;28755;51.478;5.702;2023-04-22T13:12:36;17.00;99.90
43151;DHT22;28755;51.478;5.702;2023-04-22T13:15:02;16.90;99.90
43151;DHT22;28755;51.478;5.702;2023-04-22T13:17:28;16.70;99.90
43151;DHT22;28755;51.478;5.702;2023-04-22T13:19:54;16.60;99.90
43151;DHT22;28755;51.478;5.702;2023-04-22T13:22:20;16.50;99.90
43151;DHT22;28755;51.478;5.702;2023-04-22T13:24:45;16.60;99.90
43151;DHT22;28755;51.478;5.702;2023-04-22T13:27:11;16.70;99.90
43151;DHT22;28755;51.478;5.702;2023-04-22T13:29:38;16.80;99.90
43151;DHT22;28755;51.478;5.702;2023-04-22T13:32:04;16.70;99.90
43151;DHT22;28755;51.478;5.702;2023-04-22T13:34:30;16.70;99.90
43151;DHT22;28755;51.478;5.702;2023-04-22T13:36:56;16.60;99.90
43151;DHT22;28755;51.478;5.702;2023-04-22T13:39:25;16.80;99.90
43151;DHT22;28755;51.478;5.702;2023-04-22T13:41:51;17.10;99.90
43151;DHT22;28755;51.478;5.702;2023-04-22T13:44:17;17.60;99.90
43151;DHT22;28755;51.478;5.702;2023-04-22T13:46:43;17.50;99.90
43151;DHT22;28755;51.478;5.702;2023-04-22T13:49:09;17.40;99.90
43151;DHT22;28755;51.478;5.702;2023-04-22T13:51:35;17.30;99.90
43151;DHT22;28755;51.478;5.702;2023-04-22T13:54:04;17.20;99.90
43151;DHT22;28755;51.478;5.702;2023-04-22T13:56:30;17.30;99.90
43151;DHT22;28755;51.478;5.702;2023-04-22T13:58:56;17.30;99.90
43151;DHT22;28755;51.478;5.702;2023-04-22T14:01:21;17.30;99.90
43151;DHT22;28755;51.478;5.702;2023-04-22T14:03:48;17.50;99.90
43151;DHT22;28755;51.478;5.702;2023-04-22T14:06:14;17.50;99.90
43151;DHT22;28755;51.478;5.702;2023-04-22T14:08:40;17.70;99.90
43151;DHT22;28755;51.478;5.702;2023-04-22T14:11:06;17.60;99.90
43151;DHT22;28755;51.478;5.702;2023-04-22T14:13:32;17.60;99.90
43151;DHT22;28755;51.478;5.702;2023-04-22T14:15:58;17.40;99.90
43151;DHT22;28755;51.478;5.702;2023-04-22T14:18:24;17.00;99.90
43151;DHT22;28755;51.478;5.702;2023-04-22T14:20:51;16.80;99.90
43151;DHT22;28755;51.478;5.702;2023-04-22T14:23:17;16.70;99.90
43151;DHT22;28755;51.478;5.702;2023-04-22T14:25:46;16.50;99.90
43151;DHT22;28755;51.478;5.702;2023-04-22T14:28:13;16.20;99.90
43151;DHT22;28755;51.478;5.702;2023-04-22T14:30:40;16.10;99.90
43151;DHT22;28755;51.478;5.702;2023-04-22T14:33:05;16.10;99.90
43151;DHT22;28755;51.478;5.702;2023-04-22T14:35:35;16.00;99.90
43151;DHT22;28755;51.478;5.702;2023-04-22T14:38:03;16.00;99.90
43151;DHT22;28755;51.478;5.702;2023-04-22T14:40:29;15.80;99.90
43151;DHT22;28755;51.478;5.702;2023-04-22T14:42:56;15.80;99.90
43151;DHT22;28755;51.478;5.702;2023-04-22T14:45:22;15.80;99.90
43151;DHT22;28755;51.478;5.702;2023-04-22T14:47:48;15.70;99.90
43151;DHT22;28755;51.478;5.702;2023-04-22T14:50:13;15.70;99.90
43151;DHT22;28755;51.478;5.702;2023-04-22T14:52:39;15.50;99.90
43151;DHT22;28755;51.478;5.702;2023-04-22T14:55:05;15.40;99.90
43151;DHT22;28755;51.478;5.702;2023-04-22T14:57:31;15.30;99.90
43151;DHT22;28755;51.478;5.702;2023-04-22T14:59:56;15.20;99.90
43151;DHT22;28755;51.478;5.702;2023-04-22T15:02:22;15.10;99.90
43151;DHT22;28755;51.478;5.702;2023-04-22T15:04:47;15.00;99.90
43151;DHT22;28755;51.478;5.702;2023-04-22T15:07:13;15.00;99.90
43151;DHT22;28755;51.478;5.702;2023-04-22T15:09:38;14.90;99.90
43151;DHT22;28755;51.478;5.702;2023-04-22T15:12:04;15.00;99.90
43151;DHT22;28755;51.478;5.702;2023-04-22T15:14:34;15.00;99.90
43151;DHT22;28755;51.478;5.702;2023-04-22T15:17:03;15.10;99.90
43151;DHT22;28755;51.478;5.702;2023-04-22T15:19:30;15.20;99.90
43151;DHT22;28755;51.478;5.702;2023-04-22T15:21:55;15.10;99.90
43151;DHT22;28755;51.478;5.702;2023-04-22T15:24:21;15.10;99.90
43151;DHT22;28755;51.478;5.702;2023-04-22T15:26:47;15.20;99.90
43151;DHT22;28755;51.478;5.702;2023-04-22T15:29:13;15.20;99.90
43151;DHT22;28755;51.478;5.702;2023-04-22T15:31:38;15.20;99.90
43151;DHT22;28755;51.478;5.702;2023-04-22T15:34:05;15.30;99.90
43151;DHT22;28755;51.478;5.702;2023-04-22T15:36:31;15.40;99.90
43151;DHT22;28755;51.478;5.702;2023-04-22T15:38:57;15.40;99.90
43151;DHT22;28755;51.478;5.702;2023-04-22T15:41:24;15.40;99.90
43151;DHT22;28755;51.478;5.702;2023-04-22T15:43:50;15.40;99.90
43151;DHT22;28755;51.478;5.702;2023-04-22T15:46:19;15.50;99.90